createdAt,value
2023-02-27T00:00:15.366Z,59.05
2023-02-27T00:02:46.379Z,59.01
2023-02-27T00:05:15.354Z,59.00
2023-02-27T00:07:44.764Z,59.07
2023-02-27T00:10:16.632Z,59.13
2023-02-27T00:12:46.375Z,59.20
2023-02-27T00:15:17.248Z,59.34
2023-02-27T00:17:45.731Z,59.35
2023-02-27T00:20:18.585Z,59.40
2023-02-27T00:22:47.592Z,59.42
2023-02-27T00:25:16.850Z,59.52
2023-02-27T00:27:46.520Z,59.54
2023-02-27T00:30:17.048Z,59.71
2023-02-27T00:32:45.818Z,59.55
2023-02-27T00:35:15.710Z,59.62
2023-02-27T00:37:44.129Z,59.89
2023-02-27T00:40:14.325Z,59.95
2023-02-27T00:42:43.377Z,59.79
2023-02-27T00:45:13.601Z,59.81
2023-02-27T00:47:42.746Z,59.98
2023-02-27T00:50:12.103Z,59.99
2023-02-27T00:52:40.868Z,60.00
2023-02-27T00:55:10.781Z,60.07
2023-02-27T00:57:39.943Z,60.04
2023-02-27T01:00:10.194Z,60.10
2023-02-27T01:02:40.046Z,59.94
2023-02-27T01:05:10.104Z,60.04
2023-02-27T01:07:39.265Z,60.17
2023-02-27T01:10:11.232Z,60.09
2023-02-27T01:12:41.692Z,60.26
2023-02-27T01:15:11.877Z,60.37
2023-02-27T01:17:42.430Z,60.32
2023-02-27T01:20:13.286Z,60.43
2023-02-27T01:22:43.474Z,60.46
2023-02-27T01:25:14.256Z,60.27
2023-02-27T01:27:45.221Z,60.26
2023-02-27T01:30:16.103Z,60.45
2023-02-27T01:32:47.444Z,60.59
2023-02-27T01:35:16.734Z,60.59
2023-02-27T01:37:45.223Z,60.46
2023-02-27T01:40:15.551Z,60.63
2023-02-27T01:42:45.039Z,60.62
2023-02-27T01:45:29.652Z,60.46
2023-02-27T01:48:05.350Z,60.64
2023-02-27T01:50:37.464Z,60.52
2023-02-27T01:53:08.388Z,60.72
2023-02-27T01:55:40.565Z,60.74
2023-02-27T01:58:12.598Z,60.73
2023-02-27T02:00:41.331Z,60.77
2023-02-27T02:03:19.625Z,60.62
2023-02-27T02:05:48.647Z,60.96
2023-02-27T02:08:21.225Z,60.80
2023-02-27T02:10:51.963Z,60.85
2023-02-27T02:13:23.157Z,60.93
2023-02-27T02:16:05.593Z,60.78
2023-02-27T02:18:46.315Z,60.86
2023-02-27T02:21:47.645Z,60.98
2023-02-27T02:24:48.038Z,61.03
2023-02-27T02:27:33.476Z,61.01
2023-02-27T02:31:03.347Z,60.96
2023-02-27T02:34:29.084Z,60.92
2023-02-27T02:37:49.673Z,61.07
2023-02-27T02:40:30.431Z,61.08
2023-02-27T02:43:08.421Z,60.96
2023-02-27T02:45:49.257Z,61.00
2023-02-27T02:48:22.644Z,61.06
2023-02-27T02:50:58.065Z,61.20
2023-02-27T02:53:37.099Z,60.90
2023-02-27T02:56:15.447Z,61.15
2023-02-27T02:58:51.119Z,61.03
2023-02-27T03:01:26.166Z,61.13
2023-02-27T03:04:00.302Z,60.95
2023-02-27T03:06:32.584Z,61.15
2023-02-27T03:09:06.606Z,60.80
2023-02-27T03:11:40.941Z,61.20
2023-02-27T03:14:14.858Z,60.88
2023-02-27T03:16:46.415Z,61.06
2023-02-27T03:19:19.721Z,60.73
2023-02-27T03:21:55.451Z,60.82
2023-02-27T03:24:27.310Z,60.76
2023-02-27T03:27:01.687Z,61.07
2023-02-27T03:29:38.302Z,60.90
2023-02-27T03:32:15.272Z,61.01
2023-02-27T03:34:45.098Z,61.07
2023-02-27T03:37:23.962Z,60.92
2023-02-27T03:39:57.599Z,60.93
2023-02-27T03:42:34.265Z,60.95
2023-02-27T03:45:27.512Z,61.04
2023-02-27T03:47:55.954Z,60.95
2023-02-27T03:50:24.917Z,61.04
2023-02-27T03:52:54.154Z,61.20
2023-02-27T03:55:26.372Z,61.18
2023-02-27T03:57:57.217Z,61.13
2023-02-27T04:00:27.498Z,61.11
2023-02-27T04:03:00.634Z,61.17
2023-02-27T04:05:31.176Z,61.08
2023-02-27T04:08:21.355Z,61.09
2023-02-27T04:11:19.825Z,61.02
2023-02-27T04:14:03.015Z,61.00
2023-02-27T04:16:51.660Z,60.97
2023-02-27T04:19:45.959Z,61.00
2023-02-27T04:22:26.258Z,60.90
2023-02-27T04:25:04.357Z,60.91
2023-02-27T04:27:39.209Z,61.03
2023-02-27T04:30:25.284Z,61.11
2023-02-27T04:32:58.538Z,61.04
2023-02-27T04:35:33.202Z,61.10
2023-02-27T04:38:06.041Z,61.18
2023-02-27T04:40:40.345Z,61.16
2023-02-27T04:43:11.297Z,61.29
2023-02-27T04:45:46.140Z,61.26
2023-02-27T04:48:21.214Z,61.22
2023-02-27T04:50:56.338Z,61.14
2023-02-27T04:53:29.435Z,61.37
2023-02-27T04:56:04.040Z,61.17
2023-02-27T04:58:36.217Z,61.37
2023-02-27T05:01:13.220Z,61.50
2023-02-27T05:03:45.455Z,61.43
2023-02-27T05:06:18.730Z,61.47
2023-02-27T05:08:55.362Z,61.38
2023-02-27T05:11:29.704Z,61.61
2023-02-27T05:14:03.096Z,61.50
2023-02-27T05:16:42.217Z,61.63
2023-02-27T05:19:11.711Z,61.49
2023-02-27T05:21:45.697Z,61.51
2023-02-27T05:24:24.449Z,61.44
2023-02-27T05:27:11.516Z,61.40
2023-02-27T05:29:47.109Z,61.29
2023-02-27T05:32:25.432Z,61.52
2023-02-27T05:35:02.790Z,61.30
2023-02-27T05:37:35.004Z,61.25
2023-02-27T05:40:08.515Z,61.45
2023-02-27T05:42:41.523Z,61.17
2023-02-27T05:45:14.906Z,61.20
2023-02-27T05:47:50.197Z,61.34
2023-02-27T05:50:22.344Z,61.41
2023-02-27T05:52:55.337Z,61.39
2023-02-27T05:55:28.665Z,61.26
2023-02-27T05:58:03.205Z,61.36
2023-02-27T06:00:37.325Z,61.33
2023-02-27T06:03:08.160Z,61.32
2023-02-27T06:05:43.788Z,61.25
2023-02-27T06:08:12.887Z,61.16
2023-02-27T06:10:41.770Z,61.27
2023-02-27T06:13:10.075Z,61.39
2023-02-27T06:15:38.526Z,61.21
2023-02-27T06:18:08.789Z,61.13
2023-02-27T06:20:37.116Z,61.33
2023-02-27T06:23:06.683Z,61.25
2023-02-27T06:25:35.216Z,61.27
2023-02-27T06:28:04.324Z,61.43
2023-02-27T06:30:33.541Z,61.39
2023-02-27T06:33:02.015Z,61.23
2023-02-27T06:35:33.138Z,61.37
2023-02-27T06:38:01.542Z,61.37
2023-02-27T06:40:29.935Z,61.31
2023-02-27T06:42:58.256Z,61.18
2023-02-27T06:45:46.655Z,61.28
2023-02-27T06:48:36.352Z,61.10
2023-02-27T06:51:26.331Z,60.72
2023-02-27T06:54:16.239Z,61.01
2023-02-27T06:57:05.609Z,60.93
2023-02-27T06:59:54.732Z,60.98
2023-02-27T07:02:43.540Z,60.61
2023-02-27T07:05:32.326Z,60.54
2023-02-27T07:08:22.317Z,60.60
2023-02-27T07:11:10.968Z,60.63
2023-02-27T07:14:00.044Z,60.38
2023-02-27T07:16:50.990Z,60.25
2023-02-27T07:19:39.906Z,60.03
2023-02-27T07:22:28.852Z,59.97
2023-02-27T07:25:18.938Z,60.11
2023-02-27T07:28:08.215Z,59.97
2023-02-27T07:30:57.020Z,59.79
2023-02-27T07:33:47.425Z,59.71
2023-02-27T07:36:36.054Z,59.61
2023-02-27T07:39:25.116Z,59.40
2023-02-27T07:42:15.190Z,59.36
2023-02-27T07:45:04.116Z,59.27
2023-02-27T07:47:53.338Z,59.19
2023-02-27T07:50:41.935Z,58.95
2023-02-27T07:53:31.603Z,58.75
2023-02-27T07:56:20.740Z,58.67
2023-02-27T07:59:10.952Z,58.44
2023-02-27T08:02:00.250Z,58.19
2023-02-27T08:04:49.482Z,58.10
2023-02-27T08:07:38.177Z,57.87
2023-02-27T08:10:27.069Z,57.87
2023-02-27T08:13:17.888Z,57.71
2023-02-27T08:16:10.737Z,57.44
2023-02-27T08:19:00.744Z,57.52
2023-02-27T08:21:49.806Z,57.17
2023-02-27T08:24:40.911Z,56.91
2023-02-27T08:27:29.600Z,57.91
2023-02-27T08:30:19.110Z,57.06
2023-02-27T08:33:09.130Z,56.87
2023-02-27T08:35:58.717Z,56.88
2023-02-27T08:38:47.365Z,56.48
2023-02-27T08:41:36.611Z,55.94
2023-02-27T08:44:25.237Z,55.94
2023-02-27T08:47:15.514Z,56.21
2023-02-27T08:50:07.082Z,55.85
2023-02-27T08:52:57.115Z,55.82
2023-02-27T08:55:45.720Z,55.94
2023-02-27T08:58:36.284Z,55.75
2023-02-27T09:01:28.453Z,55.70
2023-02-27T09:04:17.439Z,55.62
2023-02-27T09:07:08.121Z,54.86
2023-02-27T09:09:56.706Z,55.07
2023-02-27T09:12:46.026Z,54.93
2023-02-27T09:15:35.829Z,54.55
2023-02-27T09:18:24.518Z,54.26
2023-02-27T09:21:13.359Z,53.51
2023-02-27T09:24:17.297Z,53.70
2023-02-27T09:27:08.379Z,53.11
2023-02-27T09:29:57.351Z,52.50
2023-02-27T09:32:46.595Z,52.64
2023-02-27T09:35:35.231Z,51.92
2023-02-27T09:38:23.878Z,52.18
2023-02-27T09:41:47.318Z,51.95
2023-02-27T09:44:46.683Z,51.08
2023-02-27T09:47:39.013Z,51.62
2023-02-27T09:50:38.508Z,50.85
2023-02-27T09:53:31.699Z,50.67
2023-02-27T09:56:27.448Z,50.30
2023-02-27T09:59:26.687Z,50.19
2023-02-27T10:02:32.199Z,49.99
2023-02-27T10:05:33.137Z,49.95
2023-02-27T10:08:27.838Z,49.66
2023-02-27T10:11:25.535Z,49.59
2023-02-27T10:14:26.709Z,48.69
2023-02-27T10:17:24.127Z,49.35
2023-02-27T10:20:21.349Z,49.04
2023-02-27T10:23:16.950Z,48.79
2023-02-27T10:26:06.829Z,48.60
2023-02-27T10:28:58.195Z,48.80
2023-02-27T10:31:49.764Z,48.11
2023-02-27T10:34:41.941Z,48.31
2023-02-27T10:37:31.063Z,48.52
2023-02-27T10:40:21.132Z,48.10
2023-02-27T10:43:10.400Z,48.31
2023-02-27T10:46:05.750Z,48.49
2023-02-27T10:48:55.798Z,48.33
2023-02-27T10:51:47.385Z,48.35
2023-02-27T10:54:36.983Z,48.44
2023-02-27T10:57:33.561Z,48.22
2023-02-27T11:00:31.421Z,47.73
2023-02-27T11:03:25.569Z,47.72
2023-02-27T11:06:22.362Z,47.74
2023-02-27T11:09:19.297Z,48.03
2023-02-27T11:12:21.914Z,47.72
2023-02-27T11:15:23.707Z,47.28
2023-02-27T11:18:25.796Z,47.57
2023-02-27T11:21:23.205Z,47.45
2023-02-27T11:24:20.833Z,47.70
2023-02-27T11:27:22.430Z,47.59
2023-02-27T11:30:24.239Z,47.55
2023-02-27T11:33:19.617Z,47.44
2023-02-27T11:36:11.022Z,47.09
2023-02-27T11:38:59.713Z,47.27
2023-02-27T11:41:50.235Z,47.18
2023-02-27T11:44:50.922Z,47.21
2023-02-27T11:47:44.138Z,46.79
2023-02-27T11:50:52.370Z,46.93
2023-02-27T11:54:09.497Z,47.18
2023-02-27T11:57:04.253Z,47.25
2023-02-27T11:59:59.212Z,47.06
2023-02-27T12:02:56.573Z,47.36
2023-02-27T12:05:49.096Z,47.12
2023-02-27T12:08:42.976Z,47.01
2023-02-27T12:11:37.348Z,46.97
2023-02-27T12:14:29.722Z,46.68
2023-02-27T12:17:27.516Z,46.77
2023-02-27T12:20:29.593Z,46.44
2023-02-27T12:23:24.097Z,46.24
2023-02-27T12:26:20.154Z,46.27
2023-02-27T12:29:18.689Z,46.30
2023-02-27T12:32:16.830Z,45.89
2023-02-27T12:35:14.422Z,46.21
2023-02-27T12:38:06.290Z,45.99
2023-02-27T12:41:11.081Z,46.30
2023-02-27T12:44:13.471Z,45.88
2023-02-27T12:47:16.688Z,45.55
2023-02-27T12:50:12.704Z,44.89
2023-02-27T12:53:21.422Z,45.15
2023-02-27T12:56:16.279Z,45.41
2023-02-27T12:59:17.231Z,44.98
2023-02-27T13:02:19.679Z,44.85
2023-02-27T13:05:29.362Z,44.86
2023-02-27T13:08:43.202Z,45.13
2023-02-27T13:11:44.927Z,45.39
2023-02-27T13:14:48.885Z,45.03
2023-02-27T13:17:46.770Z,44.74
2023-02-27T13:20:44.483Z,44.25
2023-02-27T13:23:39.867Z,43.84
2023-02-27T13:26:32.401Z,43.71
2023-02-27T13:29:23.852Z,43.56
2023-02-27T13:32:41.234Z,43.57
2023-02-27T13:35:46.953Z,43.70
2023-02-27T13:38:43.614Z,43.76
2023-02-27T13:41:39.936Z,43.21
2023-02-27T13:44:50.850Z,42.64
2023-02-27T13:47:42.509Z,42.80
2023-02-27T13:50:52.864Z,42.42
2023-02-27T13:53:42.009Z,42.06
2023-02-27T13:56:30.652Z,42.23
2023-02-27T13:59:24.172Z,42.28
2023-02-27T14:02:32.593Z,42.40
2023-02-27T14:05:31.023Z,42.05
2023-02-27T14:08:24.388Z,41.72
2023-02-27T14:11:21.107Z,41.63
2023-02-27T14:14:31.003Z,41.51
2023-02-27T14:17:41.687Z,41.89
2023-02-27T14:20:51.641Z,41.77
2023-02-27T14:23:41.671Z,41.30
2023-02-27T14:26:30.469Z,41.12
2023-02-27T14:29:21.961Z,40.93
2023-02-27T14:32:20.993Z,41.30
2023-02-27T14:35:16.989Z,40.60
2023-02-27T14:38:11.376Z,40.73
2023-02-27T14:41:12.803Z,40.09
2023-02-27T14:44:01.807Z,39.83
2023-02-27T14:46:52.016Z,40.49
2023-02-27T14:49:40.738Z,40.18
2023-02-27T14:52:31.996Z,40.16
2023-02-27T14:55:28.068Z,40.59
2023-02-27T14:58:20.164Z,39.96
2023-02-27T15:01:10.790Z,40.23
2023-02-27T15:04:02.031Z,40.29
2023-02-27T15:06:53.000Z,40.35
2023-02-27T15:09:45.007Z,40.31
2023-02-27T15:12:39.388Z,40.65
2023-02-27T15:15:30.270Z,40.81
2023-02-27T15:18:21.752Z,40.95
2023-02-27T15:21:15.865Z,41.00
2023-02-27T15:24:08.847Z,41.25
2023-02-27T15:27:01.543Z,40.96
2023-02-27T15:29:52.668Z,40.97
2023-02-27T15:32:44.805Z,40.98
2023-02-27T15:35:37.872Z,41.29
2023-02-27T15:38:28.411Z,41.60
2023-02-27T15:41:18.934Z,41.67
2023-02-27T15:44:07.818Z,41.91
2023-02-27T15:46:57.648Z,42.00
2023-02-27T15:50:00.015Z,42.05
2023-02-27T15:52:53.103Z,42.07
2023-02-27T15:55:43.814Z,42.42
2023-02-27T15:58:35.938Z,42.64
2023-02-27T16:01:27.344Z,42.36
2023-02-27T16:04:21.590Z,42.29
2023-02-27T16:07:18.238Z,42.70
2023-02-27T16:10:17.952Z,42.78
2023-02-27T16:13:28.349Z,42.57
2023-02-27T16:16:28.075Z,42.66
2023-02-27T16:19:26.299Z,43.21
2023-02-27T16:22:18.850Z,43.22
2023-02-27T16:25:11.506Z,43.28
2023-02-27T16:28:00.435Z,43.45
2023-02-27T16:30:55.026Z,43.68
2023-02-27T16:33:43.723Z,43.61
2023-02-27T16:36:34.578Z,43.91
2023-02-27T16:39:24.648Z,44.14
2023-02-27T16:42:14.551Z,44.47
2023-02-27T16:45:03.156Z,44.42
2023-02-27T16:47:55.131Z,44.42
2023-02-27T16:50:44.470Z,44.39
2023-02-27T16:53:33.468Z,44.43
2023-02-27T16:56:37.248Z,44.86
2023-02-27T16:59:30.935Z,44.85
2023-02-27T17:02:19.568Z,44.76
2023-02-27T17:05:09.180Z,45.20
2023-02-27T17:07:57.836Z,45.16
2023-02-27T17:10:46.434Z,45.52
2023-02-27T17:13:37.673Z,45.40
2023-02-27T17:16:26.538Z,45.79
2023-02-27T17:19:15.689Z,45.91
2023-02-27T17:22:04.387Z,45.96
2023-02-27T17:24:53.203Z,45.97
2023-02-27T17:27:43.829Z,46.23
2023-02-27T17:30:34.360Z,46.39
2023-02-27T17:33:23.037Z,46.38
2023-02-27T17:36:13.688Z,46.41
2023-02-27T17:39:02.893Z,46.34
2023-02-27T17:41:52.883Z,46.69
2023-02-27T17:44:44.912Z,46.82
2023-02-27T17:47:35.822Z,46.91
2023-02-27T17:50:25.416Z,47.07
2023-02-27T17:53:15.579Z,46.99
2023-02-27T17:56:05.519Z,47.04
2023-02-27T17:58:54.101Z,47.18
2023-02-27T18:01:43.945Z,47.27
2023-02-27T18:04:34.043Z,47.39
2023-02-27T18:07:23.073Z,47.83
2023-02-27T18:10:14.024Z,47.87
2023-02-27T18:13:05.330Z,47.71
2023-02-27T18:15:55.556Z,47.65
2023-02-27T18:18:46.148Z,47.64
2023-02-27T18:21:36.735Z,47.64
2023-02-27T18:24:26.440Z,47.71
2023-02-27T18:27:15.658Z,47.55
2023-02-27T18:30:04.654Z,47.77
2023-02-27T18:32:57.907Z,47.58
2023-02-27T18:35:47.829Z,47.90
2023-02-27T18:38:37.909Z,47.75
2023-02-27T18:41:26.754Z,47.79
2023-02-27T18:44:15.357Z,47.85
2023-02-27T18:47:04.864Z,47.77
2023-02-27T18:49:53.822Z,47.81
2023-02-27T18:52:42.470Z,47.65
2023-02-27T18:55:32.505Z,47.64
2023-02-27T18:58:21.065Z,47.96
2023-02-27T19:01:19.458Z,48.16
2023-02-27T19:04:10.036Z,48.12
2023-02-27T19:06:58.644Z,47.92
2023-02-27T19:09:47.671Z,48.15
2023-02-27T19:12:37.828Z,48.04
2023-02-27T19:15:26.443Z,48.07
2023-02-27T19:18:15.090Z,48.31
2023-02-27T19:21:05.421Z,48.41
2023-02-27T19:23:54.555Z,48.30
2023-02-27T19:26:43.424Z,48.32
2023-02-27T19:29:33.362Z,48.41
2023-02-27T19:32:22.628Z,48.53
2023-02-27T19:35:14.257Z,48.69
2023-02-27T19:38:02.849Z,48.72
2023-02-27T19:40:51.498Z,48.52
2023-02-27T19:43:42.219Z,48.52
2023-02-27T19:46:34.983Z,48.76
2023-02-27T19:49:24.010Z,48.92
2023-02-27T19:52:13.238Z,48.88
2023-02-27T19:55:02.412Z,48.95
2023-02-27T19:57:51.245Z,49.07
2023-02-27T20:00:41.198Z,49.27
2023-02-27T20:03:31.632Z,49.24
2023-02-27T20:06:23.198Z,49.31
2023-02-27T20:09:14.449Z,49.59
2023-02-27T20:12:03.102Z,49.52
2023-02-27T20:14:52.126Z,49.60
2023-02-27T20:17:41.989Z,49.51
2023-02-27T20:20:32.329Z,49.63
2023-02-27T20:23:20.935Z,49.73
2023-02-27T20:26:17.830Z,49.82
2023-02-27T20:29:09.684Z,49.88
2023-02-27T20:31:58.911Z,49.96
2023-02-27T20:34:48.239Z,50.06
2023-02-27T20:37:39.782Z,50.10
2023-02-27T20:40:28.794Z,50.22
2023-02-27T20:43:17.903Z,50.45
2023-02-27T20:46:07.620Z,50.33
2023-02-27T20:48:56.450Z,50.37
2023-02-27T20:51:46.138Z,50.72
2023-02-27T20:54:36.053Z,50.60
2023-02-27T20:57:25.124Z,50.68
2023-02-27T21:00:15.971Z,50.80
2023-02-27T21:03:04.759Z,50.89
2023-02-27T21:05:53.773Z,51.01
2023-02-27T21:08:44.510Z,51.04
2023-02-27T21:11:35.028Z,51.09
2023-02-27T21:14:24.688Z,51.15
2023-02-27T21:17:13.742Z,51.44
2023-02-27T21:20:06.760Z,51.25
2023-02-27T21:22:56.284Z,51.17
2023-02-27T21:25:45.786Z,51.22
2023-02-27T21:28:42.020Z,51.49
2023-02-27T21:31:34.111Z,51.44
2023-02-27T21:34:24.829Z,51.51
2023-02-27T21:37:14.575Z,51.64
2023-02-27T21:40:04.266Z,51.57
2023-02-27T21:42:53.738Z,51.72
2023-02-27T21:45:47.455Z,51.79
2023-02-27T21:48:37.018Z,51.91
2023-02-27T21:51:38.816Z,51.83
2023-02-27T21:54:29.566Z,51.87
2023-02-27T21:57:18.154Z,51.69
2023-02-27T22:00:11.446Z,52.06
2023-02-27T22:03:01.560Z,52.14
2023-02-27T22:05:50.502Z,52.15
2023-02-27T22:08:39.201Z,52.21
2023-02-27T22:11:29.984Z,51.99
2023-02-27T22:14:19.027Z,52.15
2023-02-27T22:17:09.290Z,52.19
2023-02-27T22:19:59.187Z,52.06
2023-02-27T22:22:48.421Z,52.13
2023-02-27T22:25:37.552Z,52.18
2023-02-27T22:28:26.634Z,52.41
2023-02-27T22:31:17.090Z,52.58
2023-02-27T22:34:10.363Z,52.62
2023-02-27T22:37:00.271Z,52.61
2023-02-27T22:39:50.326Z,52.60
2023-02-27T22:42:38.923Z,52.68
2023-02-27T22:45:28.366Z,52.74
2023-02-27T22:48:16.946Z,53.01
2023-02-27T22:51:08.128Z,52.80
2023-02-27T22:53:59.504Z,53.11
2023-02-27T22:56:51.465Z,52.95
2023-02-27T22:59:40.073Z,52.94
2023-02-27T23:02:33.854Z,52.71
2023-02-27T23:05:22.463Z,52.83
2023-02-27T23:08:11.992Z,53.01
2023-02-27T23:11:01.947Z,53.11
2023-02-27T23:13:51.908Z,53.22
2023-02-27T23:16:45.333Z,53.00
2023-02-27T23:19:36.897Z,52.87
2023-02-27T23:22:25.515Z,53.14
2023-02-27T23:25:14.560Z,53.04
2023-02-27T23:28:07.247Z,53.15
2023-02-27T23:30:56.015Z,53.00
2023-02-27T23:33:46.406Z,53.03
2023-02-27T23:36:36.481Z,53.22
2023-02-27T23:39:25.540Z,53.05
2023-02-27T23:42:15.722Z,53.07
2023-02-27T23:45:27.487Z,53.25
2023-02-27T23:48:16.708Z,53.16
2023-02-27T23:51:07.160Z,53.29
2023-02-27T23:53:56.314Z,53.32
2023-02-27T23:56:47.646Z,53.41
2023-02-27T23:59:37.991Z,53.14
